sensor_id;sensor_type;location;lat;lon;timestamp;temperature;humidity
13684;DHT22;6914;53.552;9.908;2022-12-29T00:01:26;7.70;99.90
13684;DHT22;6914;53.552;9.908;2022-12-29T00:03:53;7.70;99.90
13684;DHT22;6914;53.552;9.908;2022-12-29T00:06:20;7.60;99.90
13684;DHT22;6914;53.552;9.908;2022-12-29T00:08:47;9.70;99.90
13684;DHT22;6914;53.552;9.908;2022-12-29T00:11:16;7.90;99.90
13684;DHT22;6914;53.552;9.908;2022-12-29T00:13:44;7.40;99.90
13684;DHT22;6914;53.552;9.908;2022-12-29T00:16:29;7.80;99.90
13684;DHT22;6914;53.552;9.908;2022-12-29T00:18:56;7.90;99.90
13684;DHT22;6914;53.552;9.908;2022-12-29T00:21:24;7.90;99.90
13684;DHT22;6914;53.552;9.908;2022-12-29T00:24:12;8.00;99.90
13684;DHT22;6914;53.552;9.908;2022-12-29T00:27:09;8.00;99.90
13684;DHT22;6914;53.552;9.908;2022-12-29T00:29:54;8.00;99.90
13684;DHT22;6914;53.552;9.908;2022-12-29T00:32:38;8.00;99.90
13684;DHT22;6914;53.552;9.908;2022-12-29T00:35:27;8.00;99.90
13684;DHT22;6914;53.552;9.908;2022-12-29T00:37:55;8.10;99.90
13684;DHT22;6914;53.552;9.908;2022-12-29T00:40:41;8.10;99.90
13684;DHT22;6914;53.552;9.908;2022-12-29T00:43:27;8.10;99.90
13684;DHT22;6914;53.552;9.908;2022-12-29T00:46:11;8.20;99.90
13684;DHT22;6914;53.552;9.908;2022-12-29T00:48:38;8.20;99.90
13684;DHT22;6914;53.552;9.908;2022-12-29T00:51:22;8.20;99.90
13684;DHT22;6914;53.552;9.908;2022-12-29T00:53:49;8.20;99.90
13684;DHT22;6914;53.552;9.908;2022-12-29T00:56:16;8.30;99.90
13684;DHT22;6914;53.552;9.908;2022-12-29T00:58:44;8.30;99.90
13684;DHT22;6914;53.552;9.908;2022-12-29T01:01:11;8.00;99.90
13684;DHT22;6914;53.552;9.908;2022-12-29T01:03:38;8.20;99.90
13684;DHT22;6914;53.552;9.908;2022-12-29T01:06:07;8.30;99.90
13684;DHT22;6914;53.552;9.908;2022-12-29T01:08:35;8.20;99.90
13684;DHT22;6914;53.552;9.908;2022-12-29T01:11:09;8.30;99.90
13684;DHT22;6914;53.552;9.908;2022-12-29T01:13:37;8.30;99.90
13684;DHT22;6914;53.552;9.908;2022-12-29T01:16:08;8.30;99.90
13684;DHT22;6914;53.552;9.908;2022-12-29T01:18:34;8.40;99.90
13684;DHT22;6914;53.552;9.908;2022-12-29T01:21:05;8.40;99.90
13684;DHT22;6914;53.552;9.908;2022-12-29T01:23:33;8.50;99.90
13684;DHT22;6914;53.552;9.908;2022-12-29T01:26:08;7.90;99.90
13684;DHT22;6914;53.552;9.908;2022-12-29T01:28:37;8.50;99.90
13684;DHT22;6914;53.552;9.908;2022-12-29T01:31:04;8.90;99.90
13684;DHT22;6914;53.552;9.908;2022-12-29T01:33:32;8.30;99.90
13684;DHT22;6914;53.552;9.908;2022-12-29T01:36:00;8.50;99.90
13684;DHT22;6914;53.552;9.908;2022-12-29T01:38:27;8.50;99.90
13684;DHT22;6914;53.552;9.908;2022-12-29T01:40:54;8.50;99.90
13684;DHT22;6914;53.552;9.908;2022-12-29T01:43:20;8.50;99.90
13684;DHT22;6914;53.552;9.908;2022-12-29T01:45:49;8.40;99.90
13684;DHT22;6914;53.552;9.908;2022-12-29T01:48:18;8.50;99.90
13684;DHT22;6914;53.552;9.908;2022-12-29T01:50:50;8.50;99.90
13684;DHT22;6914;53.552;9.908;2022-12-29T01:53:22;8.50;99.90
13684;DHT22;6914;53.552;9.908;2022-12-29T01:55:54;8.50;99.90
13684;DHT22;6914;53.552;9.908;2022-12-29T01:58:23;8.50;99.90
13684;DHT22;6914;53.552;9.908;2022-12-29T02:00:51;8.60;99.90
13684;DHT22;6914;53.552;9.908;2022-12-29T02:03:19;8.40;99.90
13684;DHT22;6914;53.552;9.908;2022-12-29T02:05:53;8.50;99.90
13684;DHT22;6914;53.552;9.908;2022-12-29T02:08:25;8.50;99.90
13684;DHT22;6914;53.552;9.908;2022-12-29T02:10:53;8.60;99.90
13684;DHT22;6914;53.552;9.908;2022-12-29T02:13:24;8.60;99.90
13684;DHT22;6914;53.552;9.908;2022-12-29T02:16:00;8.60;99.90
13684;DHT22;6914;53.552;9.908;2022-12-29T02:18:39;8.60;99.90
13684;DHT22;6914;53.552;9.908;2022-12-29T02:21:41;8.60;99.90
13684;DHT22;6914;53.552;9.908;2022-12-29T02:24:37;8.70;99.90
13684;DHT22;6914;53.552;9.908;2022-12-29T02:30:16;8.90;99.90
13684;DHT22;6914;53.552;9.908;2022-12-29T02:32:52;8.70;99.90
13684;DHT22;6914;53.552;9.908;2022-12-29T02:35:28;8.80;99.90
13684;DHT22;6914;53.552;9.908;2022-12-29T02:38:06;8.90;99.90
13684;DHT22;6914;53.552;9.908;2022-12-29T02:40:40;8.70;99.90
13684;DHT22;6914;53.552;9.908;2022-12-29T02:43:18;8.90;99.90
13684;DHT22;6914;53.552;9.908;2022-12-29T02:45:53;8.90;99.90
13684;DHT22;6914;53.552;9.908;2022-12-29T02:48:25;8.90;99.90
13684;DHT22;6914;53.552;9.908;2022-12-29T02:50:59;9.00;99.90
13684;DHT22;6914;53.552;9.908;2022-12-29T02:53:27;9.10;99.90
13684;DHT22;6914;53.552;9.908;2022-12-29T02:56:13;9.00;99.90
13684;DHT22;6914;53.552;9.908;2022-12-29T02:58:40;9.10;99.90
13684;DHT22;6914;53.552;9.908;2022-12-29T03:01:20;9.10;99.90
13684;DHT22;6914;53.552;9.908;2022-12-29T03:03:58;9.20;99.90
13684;DHT22;6914;53.552;9.908;2022-12-29T03:06:35;9.10;99.90
13684;DHT22;6914;53.552;9.908;2022-12-29T03:09:13;9.20;99.90
13684;DHT22;6914;53.552;9.908;2022-12-29T03:11:48;9.20;99.90
13684;DHT22;6914;53.552;9.908;2022-12-29T03:14:48;9.20;99.90
13684;DHT22;6914;53.552;9.908;2022-12-29T03:17:42;9.10;99.90
13684;DHT22;6914;53.552;9.908;2022-12-29T03:20:17;9.10;99.90
13684;DHT22;6914;53.552;9.908;2022-12-29T03:22:47;9.10;99.90
13684;DHT22;6914;53.552;9.908;2022-12-29T03:25:21;9.20;99.90
13684;DHT22;6914;53.552;9.908;2022-12-29T03:27:52;9.20;99.90
13684;DHT22;6914;53.552;9.908;2022-12-29T03:30:21;9.20;99.90
13684;DHT22;6914;53.552;9.908;2022-12-29T03:32:50;9.20;99.90
13684;DHT22;6914;53.552;9.908;2022-12-29T03:35:21;9.20;99.90
13684;DHT22;6914;53.552;9.908;2022-12-29T03:37:55;9.50;99.90
13684;DHT22;6914;53.552;9.908;2022-12-29T03:40:26;9.30;99.90
13684;DHT22;6914;53.552;9.908;2022-12-29T03:42:55;9.40;99.90
13684;DHT22;6914;53.552;9.908;2022-12-29T03:45:22;9.60;99.90
13684;DHT22;6914;53.552;9.908;2022-12-29T03:47:49;9.30;99.90
13684;DHT22;6914;53.552;9.908;2022-12-29T03:50:16;8.70;99.90
13684;DHT22;6914;53.552;9.908;2022-12-29T03:52:45;9.70;99.90
13684;DHT22;6914;53.552;9.908;2022-12-29T03:55:12;9.40;99.90
13684;DHT22;6914;53.552;9.908;2022-12-29T03:57:40;9.70;99.90
13684;DHT22;6914;53.552;9.908;2022-12-29T04:00:08;8.90;99.90
13684;DHT22;6914;53.552;9.908;2022-12-29T04:02:35;9.10;99.90
13684;DHT22;6914;53.552;9.908;2022-12-29T04:05:03;9.40;99.90
13684;DHT22;6914;53.552;9.908;2022-12-29T04:07:30;9.30;99.90
13684;DHT22;6914;53.552;9.908;2022-12-29T04:09:59;9.50;99.90
13684;DHT22;6914;53.552;9.908;2022-12-29T04:12:26;9.40;99.90
13684;DHT22;6914;53.552;9.908;2022-12-29T04:14:52;9.50;99.90
13684;DHT22;6914;53.552;9.908;2022-12-29T04:17:19;9.50;99.90
13684;DHT22;6914;53.552;9.908;2022-12-29T04:19:46;9.50;99.90
13684;DHT22;6914;53.552;9.908;2022-12-29T04:22:13;9.50;99.90
13684;DHT22;6914;53.552;9.908;2022-12-29T04:24:41;9.60;99.90
13684;DHT22;6914;53.552;9.908;2022-12-29T04:27:09;9.60;99.90
13684;DHT22;6914;53.552;9.908;2022-12-29T04:29:36;9.50;99.90
13684;DHT22;6914;53.552;9.908;2022-12-29T04:32:05;9.40;99.90
13684;DHT22;6914;53.552;9.908;2022-12-29T04:34:31;9.60;99.90
13684;DHT22;6914;53.552;9.908;2022-12-29T04:36:58;9.70;99.90
13684;DHT22;6914;53.552;9.908;2022-12-29T04:39:25;9.10;99.90
13684;DHT22;6914;53.552;9.908;2022-12-29T04:41:52;9.70;99.90
13684;DHT22;6914;53.552;9.908;2022-12-29T04:44:20;9.90;99.90
13684;DHT22;6914;53.552;9.908;2022-12-29T04:46:47;9.60;99.90
13684;DHT22;6914;53.552;9.908;2022-12-29T04:49:14;9.90;99.90
13684;DHT22;6914;53.552;9.908;2022-12-29T04:51:40;9.60;99.90
13684;DHT22;6914;53.552;9.908;2022-12-29T04:54:07;9.80;99.90
13684;DHT22;6914;53.552;9.908;2022-12-29T04:56:34;9.60;99.90
13684;DHT22;6914;53.552;9.908;2022-12-29T04:59:01;9.80;99.90
13684;DHT22;6914;53.552;9.908;2022-12-29T05:01:29;9.70;99.90
13684;DHT22;6914;53.552;9.908;2022-12-29T05:03:56;9.60;99.90
13684;DHT22;6914;53.552;9.908;2022-12-29T05:06:23;9.60;99.90
13684;DHT22;6914;53.552;9.908;2022-12-29T05:08:50;9.60;99.90
13684;DHT22;6914;53.552;9.908;2022-12-29T05:11:16;9.50;99.90
13684;DHT22;6914;53.552;9.908;2022-12-29T05:13:45;9.50;99.90
13684;DHT22;6914;53.552;9.908;2022-12-29T05:16:12;9.40;99.90
13684;DHT22;6914;53.552;9.908;2022-12-29T05:18:40;9.50;99.90
13684;DHT22;6914;53.552;9.908;2022-12-29T05:21:07;9.50;99.90
13684;DHT22;6914;53.552;9.908;2022-12-29T05:23:34;9.60;99.90
13684;DHT22;6914;53.552;9.908;2022-12-29T05:26:01;9.60;99.90
13684;DHT22;6914;53.552;9.908;2022-12-29T05:28:28;9.60;99.90
13684;DHT22;6914;53.552;9.908;2022-12-29T05:30:55;9.60;99.90
13684;DHT22;6914;53.552;9.908;2022-12-29T05:33:22;9.60;99.90
13684;DHT22;6914;53.552;9.908;2022-12-29T05:35:50;9.50;99.90
13684;DHT22;6914;53.552;9.908;2022-12-29T05:38:17;9.60;99.90
13684;DHT22;6914;53.552;9.908;2022-12-29T05:40:44;9.60;99.90
13684;DHT22;6914;53.552;9.908;2022-12-29T05:43:11;9.60;99.90
13684;DHT22;6914;53.552;9.908;2022-12-29T05:45:38;9.60;99.90
13684;DHT22;6914;53.552;9.908;2022-12-29T05:48:07;9.60;99.90
13684;DHT22;6914;53.552;9.908;2022-12-29T05:50:34;9.70;99.90
13684;DHT22;6914;53.552;9.908;2022-12-29T05:53:02;9.70;99.90
13684;DHT22;6914;53.552;9.908;2022-12-29T05:55:29;9.70;99.90
13684;DHT22;6914;53.552;9.908;2022-12-29T05:57:56;9.70;99.90
13684;DHT22;6914;53.552;9.908;2022-12-29T06:00:23;9.60;99.90
13684;DHT22;6914;53.552;9.908;2022-12-29T06:02:50;9.70;99.90
13684;DHT22;6914;53.552;9.908;2022-12-29T06:05:17;10.20;99.90
13684;DHT22;6914;53.552;9.908;2022-12-29T06:07:43;9.80;99.90
13684;DHT22;6914;53.552;9.908;2022-12-29T06:10:12;9.80;99.90
13684;DHT22;6914;53.552;9.908;2022-12-29T06:12:41;10.00;99.90
13684;DHT22;6914;53.552;9.908;2022-12-29T06:15:08;9.60;99.90
13684;DHT22;6914;53.552;9.908;2022-12-29T06:17:35;9.80;99.90
13684;DHT22;6914;53.552;9.908;2022-12-29T06:20:02;9.90;99.90
13684;DHT22;6914;53.552;9.908;2022-12-29T06:22:29;9.80;99.90
13684;DHT22;6914;53.552;9.908;2022-12-29T06:24:56;10.10;99.90
13684;DHT22;6914;53.552;9.908;2022-12-29T06:27:24;9.70;99.90
13684;DHT22;6914;53.552;9.908;2022-12-29T06:29:51;9.70;99.90
13684;DHT22;6914;53.552;9.908;2022-12-29T06:32:18;9.70;99.90
13684;DHT22;6914;53.552;9.908;2022-12-29T06:34:45;9.40;99.90
13684;DHT22;6914;53.552;9.908;2022-12-29T06:37:12;9.60;99.90
13684;DHT22;6914;53.552;9.908;2022-12-29T06:39:43;9.60;99.90
13684;DHT22;6914;53.552;9.908;2022-12-29T06:42:10;9.70;99.90
13684;DHT22;6914;53.552;9.908;2022-12-29T06:44:38;9.60;99.90
13684;DHT22;6914;53.552;9.908;2022-12-29T06:47:06;9.30;99.90
13684;DHT22;6914;53.552;9.908;2022-12-29T06:49:33;9.50;99.90
13684;DHT22;6914;53.552;9.908;2022-12-29T06:52:00;9.50;99.90
13684;DHT22;6914;53.552;9.908;2022-12-29T06:54:29;9.50;99.90
13684;DHT22;6914;53.552;9.908;2022-12-29T06:56:56;9.40;99.90
13684;DHT22;6914;53.552;9.908;2022-12-29T06:59:24;9.40;99.90
13684;DHT22;6914;53.552;9.908;2022-12-29T07:01:52;9.50;99.90
13684;DHT22;6914;53.552;9.908;2022-12-29T07:04:19;9.40;99.90
13684;DHT22;6914;53.552;9.908;2022-12-29T07:06:46;9.20;99.90
13684;DHT22;6914;53.552;9.908;2022-12-29T07:09:13;9.60;99.90
13684;DHT22;6914;53.552;9.908;2022-12-29T07:11:41;9.40;99.90
13684;DHT22;6914;53.552;9.908;2022-12-29T07:14:08;9.70;99.90
13684;DHT22;6914;53.552;9.908;2022-12-29T07:16:35;9.40;99.90
13684;DHT22;6914;53.552;9.908;2022-12-29T07:19:04;9.40;99.90
13684;DHT22;6914;53.552;9.908;2022-12-29T07:21:31;9.30;99.90
13684;DHT22;6914;53.552;9.908;2022-12-29T07:23:58;9.40;99.90
13684;DHT22;6914;53.552;9.908;2022-12-29T07:26:24;9.30;99.90
13684;DHT22;6914;53.552;9.908;2022-12-29T07:28:51;9.30;99.90
13684;DHT22;6914;53.552;9.908;2022-12-29T07:31:20;9.30;99.90
13684;DHT22;6914;53.552;9.908;2022-12-29T07:33:48;9.40;99.90
13684;DHT22;6914;53.552;9.908;2022-12-29T07:36:16;9.30;99.90
13684;DHT22;6914;53.552;9.908;2022-12-29T07:38:43;9.20;99.90
13684;DHT22;6914;53.552;9.908;2022-12-29T07:41:10;9.20;99.90
13684;DHT22;6914;53.552;9.908;2022-12-29T07:43:37;9.30;99.90
13684;DHT22;6914;53.552;9.908;2022-12-29T07:46:04;9.30;99.90
13684;DHT22;6914;53.552;9.908;2022-12-29T07:48:31;9.30;99.90
13684;DHT22;6914;53.552;9.908;2022-12-29T07:50:59;9.20;99.90
13684;DHT22;6914;53.552;9.908;2022-12-29T07:53:27;9.30;99.90
13684;DHT22;6914;53.552;9.908;2022-12-29T07:55:54;10.10;99.90
13684;DHT22;6914;53.552;9.908;2022-12-29T07:58:21;8.00;99.90
13684;DHT22;6914;53.552;9.908;2022-12-29T08:00:47;9.30;99.90
13684;DHT22;6914;53.552;9.908;2022-12-29T08:03:18;9.40;99.90
13684;DHT22;6914;53.552;9.908;2022-12-29T08:05:45;9.30;99.90
13684;DHT22;6914;53.552;9.908;2022-12-29T08:08:12;9.30;99.90
13684;DHT22;6914;53.552;9.908;2022-12-29T08:10:41;9.30;99.90
13684;DHT22;6914;53.552;9.908;2022-12-29T08:13:11;9.30;99.90
13684;DHT22;6914;53.552;9.908;2022-12-29T08:15:39;9.30;99.90
13684;DHT22;6914;53.552;9.908;2022-12-29T08:18:07;9.30;99.90
13684;DHT22;6914;53.552;9.908;2022-12-29T08:20:34;9.30;99.90
13684;DHT22;6914;53.552;9.908;2022-12-29T08:23:01;8.90;99.90
13684;DHT22;6914;53.552;9.908;2022-12-29T08:25:27;9.40;99.90
13684;DHT22;6914;53.552;9.908;2022-12-29T08:27:56;9.30;99.90
13684;DHT22;6914;53.552;9.908;2022-12-29T08:30:23;9.30;99.90
13684;DHT22;6914;53.552;9.908;2022-12-29T08:32:49;9.30;99.90
13684;DHT22;6914;53.552;9.908;2022-12-29T08:37:47;9.40;99.90
13684;DHT22;6914;53.552;9.908;2022-12-29T08:40:14;9.50;99.90
13684;DHT22;6914;53.552;9.908;2022-12-29T08:42:41;9.40;99.90
13684;DHT22;6914;53.552;9.908;2022-12-29T08:45:10;9.60;99.90
13684;DHT22;6914;53.552;9.908;2022-12-29T08:47:37;9.50;99.90
13684;DHT22;6914;53.552;9.908;2022-12-29T08:50:05;9.60;99.90
13684;DHT22;6914;53.552;9.908;2022-12-29T08:52:32;9.60;99.90
13684;DHT22;6914;53.552;9.908;2022-12-29T08:54:59;9.50;99.90
13684;DHT22;6914;53.552;9.908;2022-12-29T08:57:25;9.70;99.90
13684;DHT22;6914;53.552;9.908;2022-12-29T08:59:52;9.70;99.90
13684;DHT22;6914;53.552;9.908;2022-12-29T09:02:20;9.70;99.90
13684;DHT22;6914;53.552;9.908;2022-12-29T09:04:47;9.70;99.90
13684;DHT22;6914;53.552;9.908;2022-12-29T09:07:16;9.80;99.90
13684;DHT22;6914;53.552;9.908;2022-12-29T09:09:49;9.90;99.90
13684;DHT22;6914;53.552;9.908;2022-12-29T09:12:29;9.60;99.90
13684;DHT22;6914;53.552;9.908;2022-12-29T09:14:56;10.10;99.90
13684;DHT22;6914;53.552;9.908;2022-12-29T09:17:34;10.70;99.90
13684;DHT22;6914;53.552;9.908;2022-12-29T09:20:12;10.30;99.90
13684;DHT22;6914;53.552;9.908;2022-12-29T09:22:39;10.50;99.90
13684;DHT22;6914;53.552;9.908;2022-12-29T09:25:07;10.70;99.90
13684;DHT22;6914;53.552;9.908;2022-12-29T09:27:35;10.70;99.90
13684;DHT22;6914;53.552;9.908;2022-12-29T09:30:03;11.10;99.90
13684;DHT22;6914;53.552;9.908;2022-12-29T09:32:32;10.80;99.90
13684;DHT22;6914;53.552;9.908;2022-12-29T09:34:59;10.80;99.90
13684;DHT22;6914;53.552;9.908;2022-12-29T09:37:26;11.20;99.90
13684;DHT22;6914;53.552;9.908;2022-12-29T09:39:53;10.90;99.90
13684;DHT22;6914;53.552;9.908;2022-12-29T09:42:25;10.70;99.90
13684;DHT22;6914;53.552;9.908;2022-12-29T09:45:04;10.60;99.90
13684;DHT22;6914;53.552;9.908;2022-12-29T09:47:34;10.60;99.90
13684;DHT22;6914;53.552;9.908;2022-12-29T09:50:04;10.40;99.90
13684;DHT22;6914;53.552;9.908;2022-12-29T09:52:36;10.70;99.90
13684;DHT22;6914;53.552;9.908;2022-12-29T09:55:04;10.20;99.90
13684;DHT22;6914;53.552;9.908;2022-12-29T09:57:34;9.80;99.90
13684;DHT22;6914;53.552;9.908;2022-12-29T10:00:06;10.70;99.90
13684;DHT22;6914;53.552;9.908;2022-12-29T10:02:42;10.40;99.90
13684;DHT22;6914;53.552;9.908;2022-12-29T10:05:23;10.50;99.90
13684;DHT22;6914;53.552;9.908;2022-12-29T10:08:02;10.80;99.90
13684;DHT22;6914;53.552;9.908;2022-12-29T10:10:35;10.40;99.90
13684;DHT22;6914;53.552;9.908;2022-12-29T10:13:16;10.40;99.90
13684;DHT22;6914;53.552;9.908;2022-12-29T10:15:55;10.40;99.90
13684;DHT22;6914;53.552;9.908;2022-12-29T10:18:37;10.70;99.90
13684;DHT22;6914;53.552;9.908;2022-12-29T10:21:17;11.00;99.90
13684;DHT22;6914;53.552;9.908;2022-12-29T10:23:51;11.10;99.90
13684;DHT22;6914;53.552;9.908;2022-12-29T10:26:21;11.50;99.90
13684;DHT22;6914;53.552;9.908;2022-12-29T10:28:51;11.60;99.90
13684;DHT22;6914;53.552;9.908;2022-12-29T10:31:22;11.10;99.90
13684;DHT22;6914;53.552;9.908;2022-12-29T10:33:53;10.80;99.90
13684;DHT22;6914;53.552;9.908;2022-12-29T10:36:38;10.70;99.90
13684;DHT22;6914;53.552;9.908;2022-12-29T10:39:12;11.70;99.90
13684;DHT22;6914;53.552;9.908;2022-12-29T10:41:46;12.80;99.90
13684;DHT22;6914;53.552;9.908;2022-12-29T10:44:16;12.20;99.90
13684;DHT22;6914;53.552;9.908;2022-12-29T10:46:44;12.00;99.90
13684;DHT22;6914;53.552;9.908;2022-12-29T10:49:18;11.70;99.90
13684;DHT22;6914;53.552;9.908;2022-12-29T10:51:48;12.00;99.90
13684;DHT22;6914;53.552;9.908;2022-12-29T10:54:21;12.10;99.90
13684;DHT22;6914;53.552;9.908;2022-12-29T10:56:53;11.70;99.90
13684;DHT22;6914;53.552;9.908;2022-12-29T10:59:22;12.70;99.90
13684;DHT22;6914;53.552;9.908;2022-12-29T11:01:58;13.30;99.90
13684;DHT22;6914;53.552;9.908;2022-12-29T11:04:43;13.60;99.90
13684;DHT22;6914;53.552;9.908;2022-12-29T11:07:15;12.80;99.90
13684;DHT22;6914;53.552;9.908;2022-12-29T11:09:44;12.00;99.90
13684;DHT22;6914;53.552;9.908;2022-12-29T11:12:24;11.80;99.90
13684;DHT22;6914;53.552;9.908;2022-12-29T11:15:02;12.00;99.90
13684;DHT22;6914;53.552;9.908;2022-12-29T11:17:45;12.20;99.90
13684;DHT22;6914;53.552;9.908;2022-12-29T11:20:32;12.60;99.90
13684;DHT22;6914;53.552;9.908;2022-12-29T11:22:59;12.60;99.90
13684;DHT22;6914;53.552;9.908;2022-12-29T11:25:26;11.60;99.90
13684;DHT22;6914;53.552;9.908;2022-12-29T11:27:59;11.80;99.90
13684;DHT22;6914;53.552;9.908;2022-12-29T11:30:28;11.60;99.90
13684;DHT22;6914;53.552;9.908;2022-12-29T11:32:55;10.80;99.90
13684;DHT22;6914;53.552;9.908;2022-12-29T11:35:36;11.20;99.90
13684;DHT22;6914;53.552;9.908;2022-12-29T11:38:04;11.10;99.90
13684;DHT22;6914;53.552;9.908;2022-12-29T11:40:32;11.10;99.90
13684;DHT22;6914;53.552;9.908;2022-12-29T11:43:05;11.00;99.90
13684;DHT22;6914;53.552;9.908;2022-12-29T11:45:34;11.00;99.90
13684;DHT22;6914;53.552;9.908;2022-12-29T11:48:07;10.90;99.90
13684;DHT22;6914;53.552;9.908;2022-12-29T11:50:39;10.80;99.90
13684;DHT22;6914;53.552;9.908;2022-12-29T11:53:15;10.80;99.90
13684;DHT22;6914;53.552;9.908;2022-12-29T11:55:51;10.90;99.90
13684;DHT22;6914;53.552;9.908;2022-12-29T11:58:19;10.60;99.90
13684;DHT22;6914;53.552;9.908;2022-12-29T12:00:46;10.70;99.90
13684;DHT22;6914;53.552;9.908;2022-12-29T12:03:17;10.90;99.90
13684;DHT22;6914;53.552;9.908;2022-12-29T12:05:50;10.90;99.90
13684;DHT22;6914;53.552;9.908;2022-12-29T12:08:28;10.70;99.90
13684;DHT22;6914;53.552;9.908;2022-12-29T12:11:06;10.50;99.90
13684;DHT22;6914;53.552;9.908;2022-12-29T12:13:38;9.30;99.90
13684;DHT22;6914;53.552;9.908;2022-12-29T12:16:08;10.90;99.90
13684;DHT22;6914;53.552;9.908;2022-12-29T12:18:41;10.30;99.90
13684;DHT22;6914;53.552;9.908;2022-12-29T12:21:15;10.30;99.90
13684;DHT22;6914;53.552;9.908;2022-12-29T12:24:00;10.30;99.90
13684;DHT22;6914;53.552;9.908;2022-12-29T12:26:34;10.30;99.90
13684;DHT22;6914;53.552;9.908;2022-12-29T12:29:09;10.20;99.90
13684;DHT22;6914;53.552;9.908;2022-12-29T12:31:44;10.30;99.90
13684;DHT22;6914;53.552;9.908;2022-12-29T12:34:19;10.40;99.90
13684;DHT22;6914;53.552;9.908;2022-12-29T12:37:00;10.10;99.90
13684;DHT22;6914;53.552;9.908;2022-12-29T12:39:37;10.00;99.90
13684;DHT22;6914;53.552;9.908;2022-12-29T12:42:18;9.90;99.90
13684;DHT22;6914;53.552;9.908;2022-12-29T12:44:53;9.90;99.90
13684;DHT22;6914;53.552;9.908;2022-12-29T12:47:43;10.00;99.90
13684;DHT22;6914;53.552;9.908;2022-12-29T12:50:23;10.10;99.90
13684;DHT22;6914;53.552;9.908;2022-12-29T12:53:21;10.40;99.90
13684;DHT22;6914;53.552;9.908;2022-12-29T12:56:03;10.30;99.90
13684;DHT22;6914;53.552;9.908;2022-12-29T12:58:43;10.00;99.90
13684;DHT22;6914;53.552;9.908;2022-12-29T13:01:22;10.00;99.90
13684;DHT22;6914;53.552;9.908;2022-12-29T13:04:03;10.20;99.90
13684;DHT22;6914;53.552;9.908;2022-12-29T13:06:39;10.10;99.90
13684;DHT22;6914;53.552;9.908;2022-12-29T13:09:27;10.10;99.90
13684;DHT22;6914;53.552;9.908;2022-12-29T13:12:06;10.20;99.90
13684;DHT22;6914;53.552;9.908;2022-12-29T13:14:46;10.30;99.90
13684;DHT22;6914;53.552;9.908;2022-12-29T13:17:22;10.20;99.90
13684;DHT22;6914;53.552;9.908;2022-12-29T13:19:55;10.10;99.90
13684;DHT22;6914;53.552;9.908;2022-12-29T13:22:32;10.10;99.90
13684;DHT22;6914;53.552;9.908;2022-12-29T13:25:28;9.80;99.90
13684;DHT22;6914;53.552;9.908;2022-12-29T13:28:03;9.60;99.90
13684;DHT22;6914;53.552;9.908;2022-12-29T13:30:36;9.40;99.90
13684;DHT22;6914;53.552;9.908;2022-12-29T13:33:13;9.00;99.90
13684;DHT22;6914;53.552;9.908;2022-12-29T13:35:53;9.30;99.90
13684;DHT22;6914;53.552;9.908;2022-12-29T13:38:25;9.30;99.90
13684;DHT22;6914;53.552;9.908;2022-12-29T13:40:56;9.30;99.90
13684;DHT22;6914;53.552;9.908;2022-12-29T13:43:23;9.20;99.90
13684;DHT22;6914;53.552;9.908;2022-12-29T13:45:58;9.20;99.90
13684;DHT22;6914;53.552;9.908;2022-12-29T13:48:35;10.20;99.90
13684;DHT22;6914;53.552;9.908;2022-12-29T13:51:04;9.10;99.90
13684;DHT22;6914;53.552;9.908;2022-12-29T13:53:37;9.10;99.90
13684;DHT22;6914;53.552;9.908;2022-12-29T13:56:14;9.60;99.90
13684;DHT22;6914;53.552;9.908;2022-12-29T13:58:50;9.20;99.90
13684;DHT22;6914;53.552;9.908;2022-12-29T14:01:24;9.00;99.90
13684;DHT22;6914;53.552;9.908;2022-12-29T14:03:55;9.30;99.90
13684;DHT22;6914;53.552;9.908;2022-12-29T14:06:24;9.30;99.90
13684;DHT22;6914;53.552;9.908;2022-12-29T14:08:56;9.20;99.90
13684;DHT22;6914;53.552;9.908;2022-12-29T14:11:31;8.70;99.90
13684;DHT22;6914;53.552;9.908;2022-12-29T14:13:59;8.20;99.90
13684;DHT22;6914;53.552;9.908;2022-12-29T14:16:36;7.90;99.90
13684;DHT22;6914;53.552;9.908;2022-12-29T14:19:11;7.70;99.90
13684;DHT22;6914;53.552;9.908;2022-12-29T14:21:39;7.60;99.90
13684;DHT22;6914;53.552;9.908;2022-12-29T14:24:40;7.50;99.90
13684;DHT22;6914;53.552;9.908;2022-12-29T14:27:53;7.50;99.90
13684;DHT22;6914;53.552;9.908;2022-12-29T14:33:25;6.40;99.90
13684;DHT22;6914;53.552;9.908;2022-12-29T14:35:53;7.50;99.90
13684;DHT22;6914;53.552;9.908;2022-12-29T14:38:23;7.50;99.90
13684;DHT22;6914;53.552;9.908;2022-12-29T14:40:52;7.50;99.90
13684;DHT22;6914;53.552;9.908;2022-12-29T14:43:53;7.50;99.90
13684;DHT22;6914;53.552;9.908;2022-12-29T14:46:21;7.60;99.90
13684;DHT22;6914;53.552;9.908;2022-12-29T14:48:55;7.60;99.90
13684;DHT22;6914;53.552;9.908;2022-12-29T14:51:31;7.90;99.90
13684;DHT22;6914;53.552;9.908;2022-12-29T14:56:50;7.50;99.90
13684;DHT22;6914;53.552;9.908;2022-12-29T14:59:18;7.50;99.90
13684;DHT22;6914;53.552;9.908;2022-12-29T15:01:50;7.50;99.90
13684;DHT22;6914;53.552;9.908;2022-12-29T15:04:20;6.20;99.90
13684;DHT22;6914;53.552;9.908;2022-12-29T15:06:49;7.40;99.90
13684;DHT22;6914;53.552;9.908;2022-12-29T15:09:24;8.70;99.90
13684;DHT22;6914;53.552;9.908;2022-12-29T15:11:53;7.40;99.90
13684;DHT22;6914;53.552;9.908;2022-12-29T15:14:34;7.00;99.90
13684;DHT22;6914;53.552;9.908;2022-12-29T15:17:08;7.40;99.90
13684;DHT22;6914;53.552;9.908;2022-12-29T15:19:36;7.30;99.90
13684;DHT22;6914;53.552;9.908;2022-12-29T15:22:03;7.30;99.90
13684;DHT22;6914;53.552;9.908;2022-12-29T15:24:30;7.30;99.90
13684;DHT22;6914;53.552;9.908;2022-12-29T15:26:57;7.20;99.90
13684;DHT22;6914;53.552;9.908;2022-12-29T15:29:36;7.40;99.90
13684;DHT22;6914;53.552;9.908;2022-12-29T15:32:19;7.20;99.90
13684;DHT22;6914;53.552;9.908;2022-12-29T15:34:48;7.10;99.90
13684;DHT22;6914;53.552;9.908;2022-12-29T15:37:20;7.10;99.90
13684;DHT22;6914;53.552;9.908;2022-12-29T15:39:48;7.00;99.90
13684;DHT22;6914;53.552;9.908;2022-12-29T15:42:43;7.10;99.90
13684;DHT22;6914;53.552;9.908;2022-12-29T15:45:15;7.00;99.90
13684;DHT22;6914;53.552;9.908;2022-12-29T15:47:44;7.10;99.90
13684;DHT22;6914;53.552;9.908;2022-12-29T15:50:21;7.10;99.90
13684;DHT22;6914;53.552;9.908;2022-12-29T15:52:49;9.50;99.90
13684;DHT22;6914;53.552;9.908;2022-12-29T15:55:26;7.10;99.90
13684;DHT22;6914;53.552;9.908;2022-12-29T15:57:56;7.10;99.90
13684;DHT22;6914;53.552;9.908;2022-12-29T16:00:27;7.10;99.90
13684;DHT22;6914;53.552;9.908;2022-12-29T16:02:56;7.10;99.90
13684;DHT22;6914;53.552;9.908;2022-12-29T16:05:23;7.00;99.90
13684;DHT22;6914;53.552;9.908;2022-12-29T16:07:55;7.10;99.90
13684;DHT22;6914;53.552;9.908;2022-12-29T16:10:26;7.00;99.90
13684;DHT22;6914;53.552;9.908;2022-12-29T16:13:02;7.30;99.90
13684;DHT22;6914;53.552;9.908;2022-12-29T16:15:31;6.50;99.90
13684;DHT22;6914;53.552;9.908;2022-12-29T16:17:57;7.00;99.90
13684;DHT22;6914;53.552;9.908;2022-12-29T16:20:31;7.00;99.90
13684;DHT22;6914;53.552;9.908;2022-12-29T16:22:59;7.00;99.90
13684;DHT22;6914;53.552;9.908;2022-12-29T16:25:28;6.90;99.90
13684;DHT22;6914;53.552;9.908;2022-12-29T16:27:58;7.00;99.90
13684;DHT22;6914;53.552;9.908;2022-12-29T16:30:27;7.00;99.90
13684;DHT22;6914;53.552;9.908;2022-12-29T16:32:58;7.00;99.90
13684;DHT22;6914;53.552;9.908;2022-12-29T16:35:26;7.10;99.90
13684;DHT22;6914;53.552;9.908;2022-12-29T16:38:11;7.80;99.90